Time;durP1;ratioP1;P1;durP2;ratioP2;P2;SDS_P1;SDS_P2;PMS_P1;PMS_P2;Temp;Humidity;BMP_temperature;BMP_pressure;BME280_temperature;BME280_humidity;BME280_pressure;Samples;Min_cycle;Max_cycle;Signal;HPM_P1;HPM_P2
2023/01/05 00:02:01;;;;;;;;;;;14.70;71.00;;;;;;10171241;28;93459;-64
2023/01/05 00:07:03;;;;;;;;;;;14.70;71.00;;;;;;10171271;28;92568;-64
2023/01/05 00:22:47;;;;;;;;;;;14.70;70.90;;;;;;10167742;28;99419;-64
2023/01/05 00:27:50;;;;;;;;;;;14.70;71.00;;;;;;10170364;28;94265;-64
2023/01/05 00:32:52;;;;;;;;;;;14.70;71.00;;;;;;10169710;28;95051;-64
2023/01/05 00:37:54;;;;;;;;;;;14.60;70.90;;;;;;10185183;28;94173;-64
2023/01/05 00:42:56;;;;;;;;;;;14.60;70.90;;;;;;10169968;28;93481;-65
2023/01/05 00:47:57;;;;;;;;;;;14.60;70.90;;;;;;10168777;28;93786;-65
2023/01/05 00:52:59;;;;;;;;;;;14.60;70.90;;;;;;10169645;28;94161;-65
2023/01/05 00:58:01;;;;;;;;;;;14.60;70.90;;;;;;10170834;28;92457;-64
2023/01/05 01:03:02;;;;;;;;;;;14.60;70.90;;;;;;10169040;28;93879;-64
2023/01/05 01:08:04;;;;;;;;;;;14.60;71.00;;;;;;10169657;28;94462;-64
2023/01/05 01:13:06;;;;;;;;;;;14.60;71.00;;;;;;10166070;28;96100;-64
2023/01/05 01:18:08;;;;;;;;;;;14.60;70.90;;;;;;10168586;28;93517;-64
2023/01/05 01:23:09;;;;;;;;;;;14.50;71.00;;;;;;10168091;28;93521;-64
2023/01/05 01:28:11;;;;;;;;;;;14.60;71.00;;;;;;10168215;28;94775;-64
2023/01/05 01:33:13;;;;;;;;;;;14.50;71.00;;;;;;10168856;28;94233;-64
2023/01/05 01:38:14;;;;;;;;;;;14.60;71.00;;;;;;10166721;28;93854;-64
2023/01/05 01:43:18;;;;;;;;;;;14.50;70.90;;;;;;10168204;28;93526;-65
2023/01/05 01:48:19;;;;;;;;;;;14.50;71.00;;;;;;10168512;28;92510;-65
2023/01/05 01:53:24;;;;;;;;;;;14.60;71.00;;;;;;10167903;28;93672;-64
2023/01/05 01:58:27;;;;;;;;;;;14.50;70.90;;;;;;10167816;28;95047;-65
2023/01/05 02:03:30;;;;;;;;;;;14.50;70.90;;;;;;10600959;22;97289;-59
2023/01/05 02:08:32;;;;;;;;;;;14.60;70.90;;;;;;10126546;28;92903;-59
2023/01/05 02:13:52;;;;;;;;;;;14.50;71.80;;;;;;10126006;28;94039;-60
2023/01/05 02:19:00;;;;;;;;;;;14.50;70.90;;;;;;10126511;28;94472;-60
2023/01/05 02:24:12;;;;;;;;;;;14.50;70.80;;;;;;10126682;28;94577;-59
2023/01/05 02:29:24;;;;;;;;;;;14.60;70.90;;;;;;10126628;28;94237;-60
2023/01/05 02:34:32;;;;;;;;;;;14.60;70.70;;;;;;10127286;28;93938;-59
2023/01/05 02:39:40;;;;;;;;;;;14.60;70.70;;;;;;10126786;28;92955;-60
2023/01/05 02:44:43;;;;;;;;;;;14.70;71.70;;;;;;10125175;28;94438;-60
2023/01/05 02:49:44;;;;;;;;;;;14.60;70.60;;;;;;10126664;28;93490;-60
2023/01/05 02:54:49;;;;;;;;;;;14.70;70.60;;;;;;10123843;28;95901;-60
2023/01/05 02:59:53;;;;;;;;;;;14.70;70.60;;;;;;10125015;28;94922;-62
2023/01/05 03:05:03;;;;;;;;;;;14.70;70.60;;;;;;10124664;28;96273;-60
2023/01/05 03:15:28;;;;;;;;;;;14.60;70.50;;;;;;10131500;28;93166;-60
2023/01/05 03:20:30;;;;;;;;;;;14.60;70.50;;;;;;10131720;28;94444;-59
2023/01/05 03:36:21;;;;;;;;;;;14.60;70.50;;;;;;10131393;28;93517;-60
2023/01/05 03:41:24;;;;;;;;;;;14.60;70.50;;;;;;10131332;28;93842;-60
2023/01/05 03:46:26;;;;;;;;;;;14.60;70.60;;;;;;10127964;28;96532;-60
2023/01/05 03:51:28;;;;;;;;;;;14.60;70.60;;;;;;10130716;28;93693;-59
2023/01/05 03:56:30;;;;;;;;;;;14.60;70.70;;;;;;10145456;28;93138;-59
2023/01/05 04:01:32;;;;;;;;;;;14.50;70.70;;;;;;10131294;28;93590;-60
2023/01/05 04:06:34;;;;;;;;;;;14.60;70.80;;;;;;10129681;28;94600;-59
2023/01/05 04:11:35;;;;;;;;;;;14.50;70.80;;;;;;10130833;28;94569;-60
2023/01/05 04:16:37;;;;;;;;;;;14.60;70.80;;;;;;10144482;28;93064;-60
2023/01/05 04:21:39;;;;;;;;;;;14.50;70.80;;;;;;10130920;28;93747;-60
2023/01/05 04:26:41;;;;;;;;;;;14.50;71.00;;;;;;10128842;28;94488;-60
2023/01/05 04:31:43;;;;;;;;;;;14.50;70.80;;;;;;10129307;28;93568;-60
2023/01/05 04:36:46;;;;;;;;;;;14.60;70.80;;;;;;10127215;28;96800;-60
2023/01/05 04:41:49;;;;;;;;;;;14.50;70.80;;;;;;10128240;28;94475;-60
2023/01/05 06:04:06;;;;;;;;;;;14.60;70.50;;;;;;10090373;28;92752;-60
2023/01/05 06:09:07;;;;;;;;;;;14.60;70.50;;;;;;10140514;28;93371;-60
2023/01/05 06:14:09;;;;;;;;;;;14.60;70.50;;;;;;10126864;28;93614;-60
2023/01/05 06:19:11;;;;;;;;;;;14.60;70.50;;;;;;10126845;28;92266;-60
2023/01/05 06:24:12;;;;;;;;;;;14.60;70.60;;;;;;10126566;28;93559;-60
2023/01/05 06:29:14;;;;;;;;;;;14.60;70.60;;;;;;10125946;28;93462;-60
2023/01/05 06:34:15;;;;;;;;;;;14.60;70.60;;;;;;10124139;28;96960;-60
2023/01/05 06:39:18;;;;;;;;;;;14.60;70.60;;;;;;10126432;28;93539;-61
2023/01/05 06:44:19;;;;;;;;;;;14.60;70.70;;;;;;10128103;28;93509;-60
2023/01/05 06:49:21;;;;;;;;;;;14.60;70.80;;;;;;10133525;28;94464;-61
2023/01/05 06:54:23;;;;;;;;;;;14.50;70.70;;;;;;10132556;28;93477;-61
2023/01/05 06:59:24;;;;;;;;;;;14.60;70.70;;;;;;10131331;28;94104;-60
2023/01/05 07:04:26;;;;;;;;;;;14.50;70.70;;;;;;10131488;28;93612;-60
2023/01/05 07:09:28;;;;;;;;;;;14.50;70.70;;;;;;10132720;28;94050;-60
2023/01/05 07:14:30;;;;;;;;;;;14.50;70.70;;;;;;10131228;28;94233;-60
2023/01/05 07:19:31;;;;;;;;;;;14.50;70.80;;;;;;10132032;28;93346;-61
2023/01/05 07:24:33;;;;;;;;;;;14.60;70.80;;;;;;10142785;28;96003;-61
2023/01/05 07:29:35;;;;;;;;;;;14.50;70.80;;;;;;10130786;28;94620;-60
2023/01/05 07:34:37;;;;;;;;;;;14.50;70.80;;;;;;10145096;28;93708;-60
2023/01/05 07:39:38;;;;;;;;;;;14.50;70.80;;;;;;10131129;28;93386;-61
2023/01/05 07:44:40;;;;;;;;;;;14.50;70.80;;;;;;10130550;28;93533;-61
2023/01/05 07:49:42;;;;;;;;;;;14.50;70.80;;;;;;10145139;28;93390;-61
2023/01/05 07:54:44;;;;;;;;;;;14.50;70.80;;;;;;10143707;28;94542;-61
2023/01/05 07:59:46;;;;;;;;;;;14.50;70.70;;;;;;10131819;28;92868;-60
2023/01/05 08:04:48;;;;;;;;;;;14.50;70.80;;;;;;10129761;28;94352;-61
2023/01/05 08:15:10;;;;;;;;;;;14.60;70.70;;;;;;10127145;28;95793;-60
2023/01/05 08:20:11;;;;;;;;;;;14.60;70.60;;;;;;10130765;28;93728;-60
2023/01/05 08:25:13;;;;;;;;;;;14.60;70.60;;;;;;10130173;28;94312;-61
2023/01/05 08:30:15;;;;;;;;;;;14.60;70.60;;;;;;10129343;28;94676;-61
2023/01/05 08:35:17;;;;;;;;;;;14.60;70.60;;;;;;10130497;28;93299;-62
2023/01/05 08:40:18;;;;;;;;;;;14.60;70.50;;;;;;10128904;28;94546;-60
2023/01/05 08:45:20;;;;;;;;;;;14.60;70.50;;;;;;10128977;28;94523;-61
2023/01/05 08:50:22;;;;;;;;;;;14.60;70.50;;;;;;10130490;28;92867;-60
2023/01/05 08:55:24;;;;;;;;;;;14.60;70.50;;;;;;10128744;28;93736;-60
2023/01/05 09:00:26;;;;;;;;;;;14.60;70.50;;;;;;10143178;28;93140;-60
2023/01/05 09:05:27;;;;;;;;;;;14.60;70.50;;;;;;10124271;28;95820;-60
2023/01/05 09:10:29;;;;;;;;;;;14.60;70.60;;;;;;10127207;28;94503;-61
2023/01/05 09:15:30;;;;;;;;;;;14.60;70.60;;;;;;10127427;28;94600;-60
2023/01/05 09:20:32;;;;;;;;;;;14.60;70.60;;;;;;10126902;28;94414;-60
2023/01/05 09:25:40;;;;;;;;;;;14.60;70.70;;;;;;10127490;28;94427;-59
2023/01/05 09:30:42;;;;;;;;;;;14.60;70.80;;;;;;10126986;28;93437;-60
2023/01/05 09:35:54;;;;;;;;;;;14.60;70.80;;;;;;10127240;28;93276;-60
2023/01/05 09:40:59;;;;;;;;;;;14.50;70.70;;;;;;10127601;28;92794;-60
2023/01/05 09:46:03;;;;;;;;;;;14.50;70.70;;;;;;10126695;28;93429;-60
2023/01/05 09:51:06;;;;;;;;;;;14.50;70.80;;;;;;10127253;28;93395;-60
2023/01/05 09:56:21;;;;;;;;;;;14.50;70.80;;;;;;10124912;28;95722;-60
2023/01/05 10:01:44;;;;;;;;;;;14.50;70.80;;;;;;10126984;28;93186;-60
2023/01/05 10:06:48;;;;;;;;;;;14.50;70.80;;;;;;10126024;28;93615;-60
2023/01/05 10:17:13;;;;;;;;;;;14.50;70.90;;;;;;10126093;28;92710;-60
2023/01/05 10:22:41;;;;;;;;;;;14.50;70.90;;;;;;10124644;28;114397;-60
2023/01/05 10:27:48;;;;;;;;;;;14.50;71.00;;;;;;10139970;28;94426;-60
2023/01/05 10:33:02;;;;;;;;;;;14.50;70.90;;;;;;10125885;28;93750;-59
2023/01/05 10:38:32;;;;;;;;;;;14.50;70.90;;;;;;10125925;28;94844;-60
2023/01/05 10:43:34;;;;;;;;;;;14.50;70.90;;;;;;10125573;28;93707;-60
2023/01/05 10:48:36;;;;;;;;;;;14.50;70.90;;;;;;10122619;28;97101;-60
2023/01/05 10:53:40;;;;;;;;;;;14.50;70.90;;;;;;10125995;28;94461;-60
2023/01/05 10:58:42;;;;;;;;;;;14.50;70.90;;;;;;10124677;28;94794;-60
2023/01/05 11:03:46;;;;;;;;;;;14.50;71.00;;;;;;10125856;28;93730;-61
2023/01/05 11:09:22;;;;;;;;;;;14.50;71.00;;;;;;10125320;28;94289;-60
2023/01/05 11:14:25;;;;;;;;;;;14.50;71.00;;;;;;10125670;28;94583;-61
2023/01/05 11:19:34;;;;;;;;;;;14.50;71.00;;;;;;10125837;28;93568;-61
2023/01/05 11:24:36;;;;;;;;;;;14.50;71.00;;;;;;10125331;28;93032;-61
2023/01/05 11:29:38;;;;;;;;;;;14.50;71.00;;;;;;10126947;28;94534;-61
2023/01/05 11:34:47;;;;;;;;;;;14.50;71.00;;;;;;10131074;28;93707;-61
2023/01/05 11:39:51;;;;;;;;;;;14.50;71.00;;;;;;10128558;28;95923;-60
2023/01/05 11:44:54;;;;;;;;;;;14.50;71.00;;;;;;10131016;28;93708;-61
2023/01/05 11:50:00;;;;;;;;;;;14.50;71.10;;;;;;10131027;28;92936;-61
2023/01/05 11:55:18;;;;;;;;;;;14.50;71.10;;;;;;10131284;28;93715;-61
2023/01/05 12:00:27;;;;;;;;;;;14.50;71.10;;;;;;10145919;28;93696;-60
2023/01/05 12:05:44;;;;;;;;;;;14.50;71.10;;;;;;10129962;28;94305;-61
2023/01/05 12:10:46;;;;;;;;;;;14.50;71.10;;;;;;10129834;28;94423;-60
2023/01/05 12:16:02;;;;;;;;;;;14.50;71.20;;;;;;10130782;28;93883;-60
2023/01/05 12:21:06;;;;;;;;;;;14.50;71.20;;;;;;10129368;28;93584;-61
2023/01/05 12:26:23;;;;;;;;;;;14.50;71.20;;;;;;10128714;28;94395;-61
2023/01/05 12:31:25;;;;;;;;;;;14.50;71.20;;;;;;10126855;28;96102;-61
2023/01/05 12:36:53;;;;;;;;;;;14.50;71.20;;;;;;10141061;28;92874;-60
2023/01/05 12:42:24;;;;;;;;;;;14.50;71.30;;;;;;10127250;28;94784;-60
2023/01/05 12:47:46;;;;;;;;;;;14.50;71.20;;;;;;10076651;28;94507;-61
2023/01/05 12:52:56;;;;;;;;;;;14.60;71.20;;;;;;10126243;28;94181;-60
2023/01/05 12:58:03;;;;;;;;;;;14.60;71.10;;;;;;10128174;28;93666;-60
2023/01/05 13:03:11;;;;;;;;;;;14.60;71.10;;;;;;10141207;28;93483;-60
2023/01/05 13:08:34;;;;;;;;;;;14.60;71.10;;;;;;10128203;28;93227;-60
2023/01/05 13:13:41;;;;;;;;;;;14.60;71.10;;;;;;10127228;28;93804;-60
2023/01/05 13:18:49;;;;;;;;;;;14.60;71.10;;;;;;10141851;28;93449;-61
2023/01/05 13:23:56;;;;;;;;;;;14.60;71.10;;;;;;10124555;28;96026;-60
2023/01/05 13:28:59;;;;;;;;;;;14.60;71.10;;;;;;10141761;28;93433;-60
2023/01/05 13:34:14;;;;;;;;;;;14.60;71.10;;;;;;10126634;28;92928;-61
2023/01/05 13:39:34;;;;;;;;;;;14.60;71.10;;;;;;10126965;28;94244;-61
2023/01/05 13:44:54;;;;;;;;;;;14.60;71.20;;;;;;10126191;28;93573;-61
2023/01/05 13:50:14;;;;;;;;;;;14.60;71.20;;;;;;10126087;28;93404;-61
2023/01/05 13:55:18;;;;;;;;;;;14.60;71.30;;;;;;10126218;28;93103;-61
2023/01/05 14:00:32;;;;;;;;;;;14.60;71.30;;;;;;10127269;28;93904;-60
2023/01/05 14:05:39;;;;;;;;;;;14.60;71.30;;;;;;10125887;28;94080;-61
2023/01/05 14:10:41;;;;;;;;;;;14.60;71.30;;;;;;10127070;28;94368;-60
2023/01/05 14:15:43;;;;;;;;;;;14.60;71.30;;;;;;10122986;28;96088;-60
2023/01/05 14:20:48;;;;;;;;;;;14.60;71.40;;;;;;10126910;28;93462;-61
2023/01/05 14:26:03;;;;;;;;;;;14.60;71.40;;;;;;10141145;28;94273;-61
2023/01/05 14:31:15;;;;;;;;;;;14.50;71.40;;;;;;10141268;28;94409;-60
2023/01/05 14:36:34;;;;;;;;;;;14.60;71.50;;;;;;10126226;28;93515;-60
2023/01/05 14:41:36;;;;;;;;;;;14.50;71.50;;;;;;10125682;28;94719;-59
2023/01/05 14:46:47;;;;;;;;;;;14.50;71.50;;;;;;10125245;28;93252;-60
2023/01/05 14:51:56;;;;;;;;;;;14.50;71.60;;;;;;10125476;28;92856;-60
2023/01/05 14:57:18;;;;;;;;;;;14.50;71.50;;;;;;10139565;28;94134;-60
2023/01/05 15:02:23;;;;;;;;;;;14.50;71.40;;;;;;10126824;28;93588;-60
2023/01/05 15:07:34;;;;;;;;;;;14.50;71.50;;;;;;10126212;28;96844;-60
2023/01/05 15:12:42;;;;;;;;;;;14.50;71.50;;;;;;10132142;28;94708;-60
2023/01/05 15:17:59;;;;;;;;;;;14.50;71.40;;;;;;10145174;28;93063;-60
2023/01/05 15:23:18;;;;;;;;;;;14.50;71.40;;;;;;10131475;28;93954;-60
2023/01/05 15:28:32;;;;;;;;;;;14.50;71.40;;;;;;10130906;28;93493;-59
2023/01/05 15:33:40;;;;;;;;;;;14.50;71.40;;;;;;10130827;28;93978;-59
2023/01/05 15:38:43;;;;;;;;;;;14.50;71.40;;;;;;10130171;28;93555;-59
2023/01/05 15:43:45;;;;;;;;;;;14.50;71.50;;;;;;10131266;28;93942;-59
2023/01/05 15:48:49;;;;;;;;;;;14.50;71.50;;;;;;10130219;28;94863;-60
2023/01/05 15:54:03;;;;;;;;;;;14.50;71.40;;;;;;10131239;28;94485;-61
2023/01/05 15:59:17;;;;;;;;;;;14.50;71.50;;;;;;10127261;28;95953;-61
2023/01/05 16:04:19;;;;;;;;;;;14.50;71.60;;;;;;10129476;28;93465;-61
2023/01/05 16:09:23;;;;;;;;;;;14.50;71.40;;;;;;10129316;28;94369;-61
2023/01/05 16:14:27;;;;;;;;;;;14.60;71.50;;;;;;10143540;28;94499;-61
2023/01/05 16:19:33;;;;;;;;;;;14.60;71.30;;;;;;10128711;28;93555;-61
2023/01/05 16:24:43;;;;;;;;;;;14.60;71.30;;;;;;10128359;28;93728;-61
2023/01/05 16:29:46;;;;;;;;;;;14.60;71.30;;;;;;10128631;28;93458;-61
2023/01/05 16:34:48;;;;;;;;;;;14.60;71.30;;;;;;10143229;28;93140;-61
2023/01/05 16:39:59;;;;;;;;;;;14.60;71.20;;;;;;10128023;28;94500;-60
2023/01/05 16:45:01;;;;;;;;;;;14.60;71.30;;;;;;10128523;28;94862;-60
2023/01/05 16:50:29;;;;;;;;;;;14.60;71.30;;;;;;10140795;28;95672;-61
2023/01/05 16:55:34;;;;;;;;;;;14.60;71.30;;;;;;10105208;28;93449;-60
2023/01/05 17:00:36;;;;;;;;;;;14.60;71.30;;;;;;10129402;28;94556;-60
2023/01/05 17:05:38;;;;;;;;;;;14.60;71.30;;;;;;10127089;28;93382;-60
2023/01/05 17:10:40;;;;;;;;;;;14.60;71.40;;;;;;10127207;28;94509;-59
2023/01/05 17:15:43;;;;;;;;;;;14.50;71.40;;;;;;10127548;28;93436;-61
2023/01/05 17:20:45;;;;;;;;;;;14.50;71.40;;;;;;10126653;28;94671;-61
2023/01/05 17:25:47;;;;;;;;;;;14.60;71.50;;;;;;10127289;28;93172;-61
2023/01/05 17:30:49;;;;;;;;;;;14.50;71.50;;;;;;10126252;28;93414;-61
2023/01/05 17:35:51;;;;;;;;;;;14.50;71.50;;;;;;10126987;28;93630;-60
2023/01/05 17:40:53;;;;;;;;;;;14.50;72.40;;;;;;10139652;28;97049;-61
2023/01/05 17:45:54;;;;;;;;;;;14.50;71.50;;;;;;10127644;28;94037;-61
2023/01/05 17:50:56;;;;;;;;;;;14.50;71.50;;;;;;10127503;28;93575;-61
2023/01/05 17:55:58;;;;;;;;;;;14.50;71.50;;;;;;10126695;28;94580;-61
2023/01/05 18:00:59;;;;;;;;;;;14.50;71.60;;;;;;10125493;28;93400;-61
2023/01/05 18:06:01;;;;;;;;;;;14.50;71.60;;;;;;10125713;28;93476;-60
2023/01/05 18:11:04;;;;;;;;;;;14.50;71.70;;;;;;10139872;28;93650;-60
2023/01/05 18:16:07;;;;;;;;;;;14.50;71.70;;;;;;10126425;28;93403;-59
2023/01/05 18:21:08;;;;;;;;;;;14.50;71.70;;;;;;10125682;28;93504;-60
2023/01/05 18:26:10;;;;;;;;;;;14.50;71.60;;;;;;10126972;28;94302;-59
2023/01/05 18:31:13;;;;;;;;;;;14.50;71.70;;;;;;10122983;28;97176;-61
2023/01/05 18:36:15;;;;;;;;;;;14.50;71.70;;;;;;10126442;28;93852;-61
2023/01/05 18:41:20;;;;;;;;;;;14.50;71.70;;;;;;10131354;28;93322;-61
2023/01/05 18:46:22;;;;;;;;;;;14.50;71.70;;;;;;10132939;28;93842;-61
2023/01/05 18:51:24;;;;;;;;;;;14.50;71.60;;;;;;10131402;28;93574;-60
2023/01/05 18:56:26;;;;;;;;;;;14.50;71.70;;;;;;10132151;28;93278;-61
2023/01/05 19:01:28;;;;;;;;;;;14.50;71.60;;;;;;10145615;28;93533;-60
2023/01/05 19:06:30;;;;;;;;;;;14.50;71.60;;;;;;10131412;28;93838;-61
2023/01/05 19:11:32;;;;;;;;;;;14.50;71.80;;;;;;10131588;28;93709;-59
2023/01/05 19:16:34;;;;;;;;;;;14.50;71.80;;;;;;10131185;28;94457;-60
2023/01/05 19:21:36;;;;;;;;;;;14.40;71.80;;;;;;10128977;28;96666;-61
2023/01/05 19:26:38;;;;;;;;;;;14.50;71.80;;;;;;10131867;28;94850;-60
2023/01/05 19:31:40;;;;;;;;;;;14.50;71.80;;;;;;10130361;28;93560;-61
2023/01/05 19:36:42;;;;;;;;;;;14.40;71.80;;;;;;10130214;28;93486;-61
2023/01/05 19:41:44;;;;;;;;;;;14.40;71.80;;;;;;10130887;28;94302;-60
2023/01/05 19:46:53;;;;;;;;;;;14.40;71.70;;;;;;10130756;28;96716;-61
2023/01/05 19:51:55;;;;;;;;;;;14.40;71.80;;;;;;10129523;28;94560;-61
2023/01/05 19:56:57;;;;;;;;;;;14.50;71.80;;;;;;10131054;28;92954;-61
2023/01/05 20:02:00;;;;;;;;;;;14.50;71.90;;;;;;10144481;28;93583;-61
2023/01/05 20:07:02;;;;;;;;;;;14.40;71.80;;;;;;10129595;28;93319;-60
2023/01/05 20:12:05;;;;;;;;;;;14.50;71.90;;;;;;10127246;28;95889;-60
2023/01/05 20:17:15;;;;;;;;;;;14.40;71.90;;;;;;10129811;28;94079;-60
2023/01/05 20:22:17;;;;;;;;;;;14.40;71.90;;;;;;10129360;28;94358;-60
2023/01/05 20:27:18;;;;;;;;;;;14.50;71.90;;;;;;10129637;28;93500;-60
2023/01/05 20:32:21;;;;;;;;;;;14.50;71.90;;;;;;10129040;28;93659;-60
2023/01/05 20:37:23;;;;;;;;;;;14.50;71.90;;;;;;10128892;28;94508;-60
2023/01/05 20:42:27;;;;;;;;;;;14.50;71.90;;;;;;10128877;28;94069;-61
2023/01/05 20:47:29;;;;;;;;;;;14.50;71.80;;;;;;10129656;28;93650;-61
2023/01/05 20:52:47;;;;;;;;;;;14.50;72.00;;;;;;10128564;28;93498;-62
2023/01/05 20:57:49;;;;;;;;;;;14.50;72.00;;;;;;10142286;28;92878;-60
2023/01/05 21:02:51;;;;;;;;;;;14.40;72.00;;;;;;10139221;28;96910;-60
2023/01/05 21:07:53;;;;;;;;;;;14.40;72.00;;;;;;10127960;28;93879;-61
2023/01/05 21:12:56;;;;;;;;;;;14.40;72.00;;;;;;10128291;28;94116;-61
2023/01/05 21:18:18;;;;;;;;;;;14.40;72.00;;;;;;10127641;28;96051;-61
2023/01/05 21:23:20;;;;;;;;;;;14.50;72.00;;;;;;10127313;28;93622;-60
2023/01/05 21:28:21;;;;;;;;;;;14.40;72.00;;;;;;10141827;28;93531;-61
2023/01/05 21:33:24;;;;;;;;;;;14.40;72.00;;;;;;10126574;28;93403;-60
2023/01/05 21:38:35;;;;;;;;;;;14.40;72.00;;;;;;10410967;28;88655;-60
2023/01/05 21:43:56;;;;;;;;;;;14.40;72.00;;;;;;10409548;27;88792;-60
2023/01/05 21:48:58;;;;;;;;;;;14.40;72.00;;;;;;10407455;27;89021;-59
2023/01/05 21:59:20;;;;;;;;;;;14.40;72.20;;;;;;10408420;27;88761;-59
2023/01/05 22:04:22;;;;;;;;;;;14.40;72.00;;;;;;10409186;28;89731;-60
2023/01/05 22:09:24;;;;;;;;;;;14.40;72.20;;;;;;10408229;27;88249;-60
2023/01/05 22:14:25;;;;;;;;;;;14.40;72.20;;;;;;10408837;28;89392;-60
2023/01/05 22:19:27;;;;;;;;;;;14.40;72.30;;;;;;10407034;28;89380;-60
2023/01/05 22:24:29;;;;;;;;;;;14.40;72.30;;;;;;10407878;27;88420;-60
2023/01/05 22:29:31;;;;;;;;;;;14.40;72.20;;;;;;10407391;28;88824;-60
2023/01/05 22:34:33;;;;;;;;;;;14.40;72.20;;;;;;10407336;28;89873;-60
2023/01/05 22:39:35;;;;;;;;;;;14.40;72.20;;;;;;10408164;28;89136;-60
2023/01/05 22:44:36;;;;;;;;;;;14.40;72.20;;;;;;10406876;27;88636;-60
2023/01/05 22:49:38;;;;;;;;;;;14.40;72.30;;;;;;10380962;27;89332;-60
2023/01/05 22:54:40;;;;;;;;;;;14.40;72.30;;;;;;10379698;28;88778;-60
2023/01/05 22:59:41;;;;;;;;;;;14.50;72.20;;;;;;10380033;28;89163;-60
2023/01/05 23:04:43;;;;;;;;;;;14.50;72.20;;;;;;10379001;28;89012;-60
2023/01/05 23:09:45;;;;;;;;;;;14.50;72.00;;;;;;10378176;28;89819;-60
2023/01/05 23:14:47;;;;;;;;;;;14.50;72.00;;;;;;10378124;28;88971;-60
2023/01/05 23:19:49;;;;;;;;;;;14.50;72.00;;;;;;10378473;28;89097;-60
2023/01/05 23:24:51;;;;;;;;;;;14.60;72.10;;;;;;10378464;28;88764;-60
2023/01/05 23:29:52;;;;;;;;;;;14.50;72.00;;;;;;10377402;28;89048;-60
2023/01/05 23:34:54;;;;;;;;;;;14.50;72.00;;;;;;10377584;28;88946;-60
2023/01/05 23:39:56;;;;;;;;;;;14.60;72.10;;;;;;10377741;28;89137;-60
2023/01/05 23:44:58;;;;;;;;;;;14.50;72.00;;;;;;10378533;28;88862;-60
2023/01/05 23:50:00;;;;;;;;;;;14.50;72.10;;;;;;10377672;28;89942;-60
2023/01/05 23:55:02;;;;;;;;;;;14.50;72.10;;;;;;10376263;28;89898;-61
